KRDM/RDM METAR and TAF weather

Enter ICAO airport designator
Station Type Date Time Source
KRDM METAR 2019/08/25 20:00 UTC NOAA

KRDM 252000Z 36008KT 10SM CLR 27/03 A3014 RMK AO2 T02670033


Station Type Date Time Source
KRDM Decoded METAR 2019/08/25 20:00 UTC NOAA

Station name not available
Aug 25, 2019 - 04:00 PM EDT / 2019.08.25 2000 UTC
Wind: from the N (360 degrees) at 9 MPH (8 KT):0
Visibility: 10 mile(s):0
Sky conditions: clear
Temperature: 80.1 F (26.7 C)
Dew Point: 37.9 F (3.3 C)
Relative Humidity: 22%
Pressure (altimeter): 30.14 in. Hg (1020 hPa)
ob: KRDM 252000Z 36008KT 10SM CLR 27/03 A3014 RMK AO2 T02670033
cycle: 20

Station Type Date Time Source
KRDM TAF 2019/08/25 18:24 UTC NOAA

TAF KRDM 251720Z 2518/2618 31011KT P6SM SKC
FM260700 VRB05KT P6SM SKC

Example: see airport list